サンパウロ/グアルーリョス の空港の天気 - METARとTAF

グアルーリョス国際空港 (サンパウロ) ( SBGR / GRU ) - ブラジル サンパウロ州サンパウロ市
飛行場実況気象(Metar)
観測時間06/26 08:00 BRT (06/26 11:00 UTC)
風向・風速東北東 6m/s
視程10km以上
天気現象
全天を覆う雲 雲底高度 240m
気温14℃
湿度94%
気圧1027hPa
METARSBGR 261100Z 07011KT 9999 OVC008 14/13 Q1027
過去の天気等 Google飛行場航空写真 Wunderground天気予報

過去48時間のMETAR

飛行場予報(TAF)
発表時間: 6/26 07:08 BRT (6/26 10:08 UTC)
予報対象時間: 26日9時 BRT ~ 27日15時 BRT
風向・風速東 3m/s
視程10km以上
全天の4割程度の雲 雲底高度 400m
26日10時 BRT ~ 26日12時 BRT に徐々に
風向・風速東北東 5m/s
少しの雲 雲底高度 760m
26日16時 BRT ~ 26日18時 BRT に徐々に
風向・風速南東 3m/s
全天の8割程度の雲 雲底高度 520m
26日18時 BRT ~ 26日20時 BRT に徐々に
全天の8割程度の雲 雲底高度 340m
26日21時 BRT ~ 27日3時 BRT に一時的に
風向・風速東北東 3m/s
視程10km以上
なし
27日6時 BRT から 確率 30% で
視程5,000m
天気現象もや
全天の8割程度の雲 雲底高度 150m
TAF SBGR 261008Z 2612/2718 08005KT 9999 SCT013 TN11/2707Z TX22/2717Z
BECMG 2613/2615 06010KT FEW025
BECMG 2619/2621 14005KT BKN017
BECMG 2621/2623 BKN011
TEMPO 2700/2706 07005KT CAVOK
PROB30 2709/2712 5000 BR BKN005 RMK PGD